Time,TemperatureC,DewpointC,PressurehPa,WindDirection,WindDirectionDegrees,WindSpeedKMH,WindSpeedGustKMH,Humidity,HourlyPrecipMM,Conditions,Clouds,dailyrainMM,SolarRadiationWatts/m^2,UVIndex,SoftwareType,DateUTC
2026-09-04 00:03:07,14.1,15.9,1007.2,SSW,202,0,0,85.2,0.0,,,0.0,2,0,n/a,2026-09-03T22:03:07Z
2026-09-04 00:09:07,14.1,15.8,1007.2,WNW,292,0.2,0.5,85.2,0.0,,,0.0,0,0,n/a,2026-09-03T22:09:07Z
2026-09-04 00:12:07,14.1,15.8,1007.5,NW,315,0,0,85.2,0.0,,,0.0,2,0,n/a,2026-09-03T22:12:07Z
2026-09-04 00:18:07,14.1,15.8,1007.2,NW,315,0,0,85.4,0.0,,,0.0,2,0,n/a,2026-09-03T22:18:07Z
2026-09-04 00:24:07,14.1,15.8,1007.2,NW,315,0,0,85.4,0.0,,,0.0,2,0,n/a,2026-09-03T22:24:07Z
2026-09-04 00:27:03,14.2,15.9,1007.2,North,0,0,0,85.7,0.0,,,0.0,2,0,n/a,2026-09-03T22:27:03Z
2026-09-04 00:33:06,14.2,15.8,1007.2,South,180,0,0,85.6,0.0,,,0.0,2,0,n/a,2026-09-03T22:33:06Z
2026-09-04 00:39:07,14.1,15.8,1007.2,South,180,0,0,85.7,0.0,,,0.0,2,0,n/a,2026-09-03T22:39:07Z
2026-09-04 00:42:06,14,15.8,1007.2,South,180,0,0,85.8,0.0,,,0.0,0,0,n/a,2026-09-03T22:42:06Z
2026-09-04 00:48:07,14,15.8,1007.2,NE,39,0.4,0.7,86,0.0,,,0.0,2,0,n/a,2026-09-03T22:48:07Z
2026-09-04 00:54:07,13.8,15.7,1007.2,NE,45,0.4,1.1,85.6,0.0,,,0.0,2,0,n/a,2026-09-03T22:54:07Z
2026-09-04 00:57:08,13.7,15.7,1007.2,NE,45,0,0,85.4,0.0,,,0.0,2,0,n/a,2026-09-03T22:57:08Z
2026-09-04 01:03:03,13.6,15.6,1007.2,ENE,59,0.9,1.5,85.4,0.0,,,0.0,0,0,n/a,2026-09-03T23:03:03Z
2026-09-04 01:09:07,13.6,15.4,1007.2,West,270,0.6,1.3,85.2,0.0,,,0.0,2,0,n/a,2026-09-03T23:09:07Z
2026-09-04 01:12:07,13.7,15.4,1007.2,West,270,0,0,85.4,0.0,,,0.0,2,0,n/a,2026-09-03T23:12:07Z
2026-09-04 01:18:06,13.7,15.5,1007.2,West,270,0,0,85.7,0.0,,,0.0,2,0,n/a,2026-09-03T23:18:06Z
2026-09-04 01:24:03,13.5,15.5,1007.2,West,270,0,0,85.5,0.0,,,0.0,2,0,n/a,2026-09-03T23:24:03Z
2026-09-04 01:27:07,13.5,15.3,1007.0,West,270,0,0,85.3,0.0,,,0.0,0,0,n/a,2026-09-03T23:27:07Z
2026-09-04 01:33:07,13.4,15.3,1007.0,West,270,0,0,85.5,0.0,,,0.0,2,0,n/a,2026-09-03T23:33:07Z
2026-09-04 01:39:07,13.3,15.3,1006.7,East,90,0.4,1.1,85.8,0.0,,,0.0,2,0,n/a,2026-09-03T23:39:07Z
2026-09-04 01:42:07,13.3,15.2,1006.7,East,90,0,0,86.2,0.0,,,0.0,2,0,n/a,2026-09-03T23:42:07Z
2026-09-04 01:48:07,13.2,15.2,1006.7,ENE,67,0.2,0.7,85.9,0.0,,,0.0,0,0,n/a,2026-09-03T23:48:07Z
2026-09-04 01:54:06,13.1,15.2,1006.7,East,90,0,0,85.6,0.0,,,0.0,2,0,n/a,2026-09-03T23:54:06Z
2026-09-04 01:57:06,13,15.1,1006.7,East,90,0,0,85.4,0.0,,,0.0,2,0,n/a,2026-09-03T23:57:06Z
2026-09-04 02:03:07,13.1,15,1006.7,SSE,157,0,0,85.3,0.0,,,0.0,2,0,n/a,2026-09-04T00:03:07Z
2026-09-04 02:09:07,12.8,14.9,1006.7,NNE,30,0.8,1.3,85.4,0.0,,,0.0,2,0,n/a,2026-09-04T00:09:07Z
2026-09-04 02:12:07,12.8,14.8,1006.5,South,180,1.2,1.7,84.8,0.0,,,0.0,2,0,n/a,2026-09-04T00:12:07Z
2026-09-04 02:18:07,12.9,14.7,1006.2,East,90,0.3,0.7,85.2,0.0,,,0.0,2,0,n/a,2026-09-04T00:18:07Z
2026-09-04 02:24:06,13,14.8,1006.2,South,180,0,0,85.8,0.0,,,0.0,2,0,n/a,2026-09-04T00:24:06Z
2026-09-04 02:27:03,12.8,14.8,1006.2,South,180,0,0,85.5,0.0,,,0.0,0,0,n/a,2026-09-04T00:27:03Z
2026-09-04 02:33:07,12.8,14.8,1006.2,WNW,299,0.9,1.3,85.6,0.0,,,0.0,2,0,n/a,2026-09-04T00:33:07Z
2026-09-04 02:39:07,12.7,14.8,1006.2,West,281,1.4,2,85.7,0.0,,,0.0,2,0,n/a,2026-09-04T00:39:07Z
2026-09-04 02:42:07,12.6,14.6,1006.2,West,270,0,0,85.4,0.0,,,0.0,0,0,n/a,2026-09-04T00:42:07Z
2026-09-04 02:48:03,12.6,14.6,1006.2,North,350,0.8,1.9,85.2,0.0,,,0.0,0,0,n/a,2026-09-04T00:48:03Z
2026-09-04 02:54:07,12.5,14.6,1006.2,South,180,0.3,0.6,85.3,0.0,,,0.0,2,0,n/a,2026-09-04T00:54:07Z
2026-09-04 02:57:07,12.7,14.6,1005.7,East,90,2,2.2,85.8,0.0,,,0.0,2,0,n/a,2026-09-04T00:57:07Z
2026-09-04 03:03:07,12.8,14.6,1006.2,NNE,20,1.8,2.5,86.1,0.0,,,0.0,2,0,n/a,2026-09-04T01:03:07Z
2026-09-04 03:09:03,12.9,14.7,1006.2,NNE,22,0.4,1.3,86.2,0.0,,,0.0,2,0,n/a,2026-09-04T01:09:03Z
2026-09-04 03:12:07,13.1,14.8,1006.2,West,270,3.5,3.9,87,0.0,,,0.0,2,0,n/a,2026-09-04T01:12:07Z
2026-09-04 03:18:07,13.6,15.2,1006.2,NE,45,0.7,1.3,88.1,0.0,,,0.0,2,0,n/a,2026-09-04T01:18:07Z
2026-09-04 03:24:07,13.7,15.2,1006.0,ENE,60,0.7,1.6,88.3,0.0,,,0.0,2,0,n/a,2026-09-04T01:24:07Z
2026-09-04 03:27:07,13.6,15.4,1005.7,SE,135,0,0,88.6,0.0,,,0.0,2,0,n/a,2026-09-04T01:27:07Z
2026-09-04 03:33:07,13.5,15.4,1005.7,South,180,0,0,88.5,0.0,,,0.0,2,0,n/a,2026-09-04T01:33:07Z
2026-09-04 03:39:07,13.4,15.4,1005.7,South,180,0,0,88.4,0.0,,,0.0,2,0,n/a,2026-09-04T01:39:07Z
2026-09-04 03:42:07,13.3,15.3,1005.7,South,180,0,0,88.1,0.0,,,0.0,2,0,n/a,2026-09-04T01:42:07Z
2026-09-04 03:48:07,13.2,15.1,1005.7,East,90,0,0,87.6,0.0,,,0.0,2,0,n/a,2026-09-04T01:48:07Z
2026-09-04 03:54:06,13.3,15.1,1005.7,East,90,0,0,87.8,0.0,,,0.0,2,0,n/a,2026-09-04T01:54:06Z
2026-09-04 03:57:07,13.3,15.2,1005.7,East,90,0,0,87.9,0.0,,,0.0,0,0,n/a,2026-09-04T01:57:07Z
2026-09-04 04:03:07,13.3,15.2,1005.7,East,90,0,0,87.8,0.0,,,0.0,2,0,n/a,2026-09-04T02:03:07Z
2026-09-04 04:09:07,13.5,15.2,1005.7,ESE,110,2.6,4.5,88,0.0,,,0.0,2,0,n/a,2026-09-04T02:09:07Z
2026-09-04 04:12:03,13.6,15.4,1005.7,West,270,3.9,3.9,88.5,0.0,,,0.0,0,0,n/a,2026-09-04T02:12:03Z
2026-09-04 04:18:07,13.7,15.4,1005.7,North,0,0.2,0.7,88.8,0.0,,,0.0,0,0,n/a,2026-09-04T02:18:07Z
2026-09-04 04:24:07,13.5,15.4,1005.5,South,180,0,0,88.5,0.0,,,0.0,2,0,n/a,2026-09-04T02:24:07Z
2026-09-04 04:27:07,13.4,15.3,1005.2,South,180,0,0,88.5,0.0,,,0.0,2,0,n/a,2026-09-04T02:27:07Z
2026-09-04 04:33:03,13.5,15.3,1005.2,South,180,0,0,88.4,0.0,,,0.0,2,0,n/a,2026-09-04T02:33:03Z
2026-09-04 04:39:07,13.3,15.3,1005.2,South,180,0,0,88.3,0.0,,,0.0,0,0,n/a,2026-09-04T02:39:07Z
2026-09-04 04:42:07,13.3,15.1,1005.5,South,180,0,0,88,0.0,,,0.0,2,0,n/a,2026-09-04T02:42:07Z
2026-09-04 04:48:07,13.2,15.2,1005.2,NW,315,0,0,88.1,0.0,,,0.0,2,0,n/a,2026-09-04T02:48:07Z
2026-09-04 04:54:03,13.1,15.1,1005.2,North,0,0,0,87.8,0.0,,,0.0,2,0,n/a,2026-09-04T02:54:03Z
2026-09-04 04:57:07,12.9,15.1,1005.2,ENE,67,0,0,87.6,0.0,,,0.0,2,0,n/a,2026-09-04T02:57:07Z
2026-09-04 05:03:07,13,14.9,1005.2,East,90,0,0,87.6,0.0,,,0.0,2,0,n/a,2026-09-04T03:03:07Z
2026-09-04 05:09:07,13,14.9,1005.2,SE,135,0,0,87.8,0.0,,,0.0,2,0,n/a,2026-09-04T03:09:07Z
2026-09-04 05:12:07,13,14.9,1005.0,SE,135,0,0,88,0.0,,,0.0,2,0,n/a,2026-09-04T03:12:07Z
2026-09-04 05:18:07,13.1,14.9,1005.0,SE,135,0,0,88,0.0,,,0.0,2,0,n/a,2026-09-04T03:18:07Z
2026-09-04 05:24:07,12.9,14.9,1005.2,NE,45,0.4,1.2,87.7,0.0,,,0.0,2,0,n/a,2026-09-04T03:24:07Z
2026-09-04 05:27:07,12.9,14.9,1005.2,ENE,67,0,0,88,0.0,,,0.0,2,0,n/a,2026-09-04T03:27:07Z
2026-09-04 05:33:07,13,14.9,1005.2,NNW,337,0.3,1.1,87.8,0.0,,,0.0,2,0,n/a,2026-09-04T03:33:07Z
2026-09-04 05:39:07,13.1,15,1005.2,SW,225,0,0,88.2,0.0,,,0.0,2,0,n/a,2026-09-04T03:39:07Z
2026-09-04 05:42:07,13.1,14.9,1005.2,SSW,202,0,0,88.1,0.0,,,0.0,2,0,n/a,2026-09-04T03:42:07Z
2026-09-04 05:48:07,13.1,14.9,1005.2,North,0,0.3,0.7,88.1,0.0,,,0.0,0,0,n/a,2026-09-04T03:48:07Z
2026-09-04 05:54:07,13.1,14.9,1005.2,South,180,0,0,88.3,0.0,,,0.0,2,0,n/a,2026-09-04T03:54:07Z
2026-09-04 05:57:03,12.9,14.8,1005.2,North,0,1.3,1.3,87.9,0.0,,,0.0,2,0,n/a,2026-09-04T03:57:03Z
2026-09-04 06:03:07,12.9,14.9,1005.0,East,90,0,0,87.9,0.0,,,0.0,2,0,n/a,2026-09-04T04:03:07Z
2026-09-04 06:09:07,12.8,14.8,1005.0,North,0,0.9,2,87.9,0.0,,,0.0,0,0,n/a,2026-09-04T04:09:07Z
2026-09-04 06:12:07,13.1,15,1005.0,North,0,0.6,0.7,88.6,0.0,,,0.0,2,0,n/a,2026-09-04T04:12:07Z
2026-09-04 06:18:03,13.1,14.9,1005.0,SSW,212,1.4,3.2,88.5,0.0,,,0.0,2,0,n/a,2026-09-04T04:18:03Z
2026-09-04 06:24:07,13.4,15.1,1004.8,SSW,206,2.2,3.2,89.4,0.0,,,0.0,2,0,n/a,2026-09-04T04:24:07Z
2026-09-04 06:27:07,13.6,15.3,1004.8,North,0,4.8,5,89.7,0.0,,,0.0,2,0,n/a,2026-09-04T04:27:07Z
2026-09-04 06:33:06,13.6,15.3,1004.8,ENE,67,0.2,0.6,89.7,0.0,,,0.0,2,0,n/a,2026-09-04T04:33:06Z
2026-09-04 06:39:03,13.7,15.4,1004.8,ENE,77,1.6,2.6,90,0.0,,,0.0,2,0,n/a,2026-09-04T04:39:03Z
2026-09-04 06:42:07,13.8,15.5,1004.8,SE,135,0,0,89.9,0.0,,,0.0,2,0,n/a,2026-09-04T04:42:07Z
2026-09-04 06:48:07,13.9,15.6,1004.8,NW,315,0.1,0.5,90.2,0.0,,,0.0,4,0,n/a,2026-09-04T04:48:07Z
2026-09-04 06:54:07,14,15.6,1004.8,NE,51,2.1,3.1,90.2,0.0,,,0.0,4,0,n/a,2026-09-04T04:54:07Z
2026-09-04 06:57:07,14.1,15.7,1004.8,East,90,0,0,90.4,0.0,,,0.0,4,0,n/a,2026-09-04T04:57:07Z
2026-09-04 07:03:07,14.2,15.8,1004.8,SE,135,0.6,1.3,90.5,0.0,,,0.0,8,0,n/a,2026-09-04T05:03:07Z
2026-09-04 07:09:07,14.4,16,1004.8,South,180,1.6,3.3,91.2,0.0,,,0.0,10,0,n/a,2026-09-04T05:09:07Z
2026-09-04 07:12:07,14.5,16.1,1004.8,SSE,157,0,0,91,0.0,,,0.0,12,0,n/a,2026-09-04T05:12:07Z
2026-09-04 07:18:03,14.6,16.2,1004.8,SE,135,0.8,1.7,91.6,0.0,,,0.0,16,0,n/a,2026-09-04T05:18:03Z
2026-09-04 07:24:07,14.6,16.3,1004.8,SE,135,0,0,91.5,0.0,,,0.0,14,0,n/a,2026-09-04T05:24:07Z
2026-09-04 07:27:03,14.6,16.3,1004.8,SE,135,0,0,91.6,0.0,,,0.0,12,0,n/a,2026-09-04T05:27:03Z
2026-09-04 07:33:07,14.8,16.5,1004.8,East,90,0.4,1.1,91.5,0.0,,,0.0,32,0,n/a,2026-09-04T05:33:07Z
2026-09-04 07:39:03,15,16.6,1004.8,East,83,1.4,1.9,92.1,0.0,,,0.0,28,0,n/a,2026-09-04T05:39:03Z
2026-09-04 07:42:07,15.2,16.8,1004.5,East,79,4.7,4.9,92.4,0.0,,,0.0,32,0,n/a,2026-09-04T05:42:07Z
2026-09-04 07:48:07,15.3,16.9,1004.5,East,90,1.9,2.2,92.7,0.0,,,0.0,40,0,n/a,2026-09-04T05:48:07Z
2026-09-04 07:54:07,15.5,17,1004.8,East,83,2.3,2.7,92.7,0.0,,,0.0,42,0,n/a,2026-09-04T05:54:07Z
2026-09-04 07:57:03,15.6,17.1,1004.5,North,0,1.8,2,92.7,0.0,,,0.0,46,0,n/a,2026-09-04T05:57:03Z
2026-09-04 08:03:08,15.7,17.2,1004.8,East,90,1.6,1.9,92.6,0.0,,,0.0,48,0,n/a,2026-09-04T06:03:08Z
2026-09-04 08:09:07,15.8,17.3,1004.8,ESE,112,0.7,1.6,92.5,0.0,,,0.0,40,0,n/a,2026-09-04T06:09:07Z
2026-09-04 08:12:07,15.9,17.3,1004.5,ESE,112,0,0,92.5,0.0,,,0.0,44,0,n/a,2026-09-04T06:12:07Z
2026-09-04 08:18:03,15.9,17.3,1004.5,ESE,112,0,0,92.3,0.0,,,0.0,42,0,n/a,2026-09-04T06:18:03Z
2026-09-04 08:24:07,16,17.4,1004.8,East,79,0.6,1.1,92.1,0.0,,,0.0,44,0,n/a,2026-09-04T06:24:07Z
2026-09-04 08:27:07,16.1,17.3,1004.8,East,90,0.6,0.6,92.1,0.0,,,0.0,34,0,n/a,2026-09-04T06:27:07Z
2026-09-04 08:33:07,16,17.4,1004.8,NE,51,0.3,0.6,91.8,0.0,,,0.0,38,0,n/a,2026-09-04T06:33:07Z
2026-09-04 08:39:07,16.1,17.4,1004.8,East,94,2,2.7,91.7,0.0,,,0.0,76,0,n/a,2026-09-04T06:39:07Z
2026-09-04 08:42:07,16.3,17.5,1004.8,SE,135,1.5,1.9,92,0.0,,,0.0,84,0,n/a,2026-09-04T06:42:07Z
2026-09-04 08:48:07,16.5,17.7,1004.8,East,93,1.6,2.2,92.2,0.0,,,0.0,98,0,n/a,2026-09-04T06:48:07Z
2026-09-04 08:54:06,16.8,17.8,1004.8,ENE,64,1.2,1.3,92.1,0.0,,,0.0,100,0,n/a,2026-09-04T06:54:06Z
2026-09-04 08:57:03,16.8,17.8,1004.8,East,90,1.3,1.3,91.8,0.0,,,0.0,96,0,n/a,2026-09-04T06:57:03Z
2026-09-04 09:03:08,17.1,17.8,1004.8,NE,48,1.2,2.6,91.5,0.0,,,0.0,98,0,n/a,2026-09-04T07:03:08Z
2026-09-04 09:09:06,17.3,18,1004.8,ESE,123,0.6,0.7,91.4,0.0,,,0.0,134,0,n/a,2026-09-04T07:09:06Z
2026-09-04 09:12:07,17.5,18,1004.5,East,90,0.9,1.3,90.8,0.0,,,0.0,114,0,n/a,2026-09-04T07:12:07Z